createdAt,value
2023-01-07T00:00:23.527Z,0.20
2023-01-07T00:05:26.320Z,0.00
2023-01-07T00:10:30.412Z,0.00
2023-01-07T00:15:33.147Z,0.00
2023-01-07T00:20:35.988Z,0.00
2023-01-07T00:25:40.154Z,0.20
2023-01-07T00:30:42.911Z,0.60
2023-01-07T00:35:46.268Z,0.00
2023-01-07T00:40:50.523Z,0.00
2023-01-07T00:45:53.388Z,0.00
2023-01-07T00:50:56.141Z,0.00
2023-01-07T00:56:00.338Z,0.00
2023-01-07T01:01:03.471Z,1.00
2023-01-07T01:06:07.857Z,0.00
2023-01-07T01:11:12.789Z,0.00
2023-01-07T01:16:16.441Z,0.00
2023-01-07T01:21:19.314Z,0.00
2023-01-07T01:26:23.436Z,0.00
2023-01-07T01:31:26.328Z,1.00
2023-01-07T01:36:30.039Z,1.00
2023-01-07T01:41:36.300Z,1.00
2023-01-07T01:46:40.695Z,0.00
2023-01-07T01:51:46.519Z,0.00
2023-01-07T01:56:51.137Z,0.00
2023-01-07T02:01:54.451Z,0.40
2023-01-07T02:07:00.588Z,0.00
2023-01-07T02:12:12.016Z,0.80
2023-01-07T02:17:20.194Z,0.20
2023-01-07T02:22:42.377Z,0.20
2023-01-07T02:28:12.617Z,1.00
2023-01-07T02:33:32.586Z,0.40
2023-01-07T02:38:37.041Z,0.00
2023-01-07T02:43:42.251Z,1.00
2023-01-07T02:48:46.908Z,0.00
2023-01-07T02:53:49.767Z,1.00
2023-01-07T02:59:16.164Z,1.00
2023-01-07T03:04:29.087Z,0.00
2023-01-07T03:09:34.258Z,0.00
2023-01-07T03:14:39.319Z,0.20
2023-01-07T03:19:46.129Z,0.00
2023-01-07T03:24:49.427Z,1.00
2023-01-07T03:29:53.187Z,0.00
2023-01-07T03:34:58.511Z,0.80
2023-01-07T03:40:04.671Z,0.00
2023-01-07T03:45:12.475Z,0.00
2023-01-07T03:50:17.417Z,0.00
2023-01-07T03:55:21.488Z,0.00
2023-01-07T04:00:26.641Z,0.00
2023-01-07T04:05:37.409Z,0.00
2023-01-07T04:10:40.629Z,0.00
2023-01-07T04:15:44.609Z,0.00
2023-01-07T04:20:49.296Z,0.00
2023-01-07T04:25:52.828Z,0.00
2023-01-07T04:30:59.683Z,0.20
2023-01-07T04:36:05.222Z,0.00
2023-01-07T04:41:08.172Z,0.00
2023-01-07T04:46:11.177Z,0.00
2023-01-07T04:51:15.430Z,0.00
2023-01-07T04:56:18.481Z,0.00
2023-01-07T05:01:22.907Z,0.00
2023-01-07T05:06:27.415Z,0.00
2023-01-07T05:11:30.303Z,0.00
2023-01-07T05:16:34.983Z,0.00
2023-01-07T05:21:43.538Z,0.00
2023-01-07T05:26:47.554Z,0.00
2023-01-07T05:31:53.032Z,0.40
2023-01-07T05:36:57.412Z,0.80
2023-01-07T05:42:00.961Z,0.80
2023-01-07T05:47:04.540Z,0.00
2023-01-07T05:52:08.916Z,0.00
2023-01-07T05:57:12.257Z,0.00
2023-01-07T06:02:15.055Z,0.00
2023-01-07T06:07:19.166Z,0.00
2023-01-07T06:12:21.925Z,0.00
2023-01-07T06:17:24.823Z,0.00
2023-01-07T06:22:29.163Z,0.00
2023-01-07T06:27:31.977Z,0.00
2023-01-07T06:32:38.349Z,0.00
2023-01-07T06:37:42.503Z,0.00
2023-01-07T06:42:45.300Z,0.00
2023-01-07T06:47:49.166Z,1.00
2023-01-07T06:52:53.627Z,0.00
2023-01-07T06:57:56.387Z,0.00
2023-01-07T07:02:59.356Z,0.00
2023-01-07T07:08:04.130Z,0.00
2023-01-07T07:13:06.929Z,0.00
2023-01-07T07:18:09.780Z,0.00
2023-01-07T07:23:13.884Z,0.00
2023-01-07T07:28:17.084Z,0.80
2023-01-07T07:33:19.996Z,0.00
2023-01-07T07:38:24.166Z,0.00
2023-01-07T07:43:26.920Z,0.00
2023-01-07T07:48:29.824Z,0.00
2023-01-07T07:53:34.028Z,0.00
2023-01-07T07:58:36.832Z,0.00
2023-01-07T08:03:39.736Z,0.00
2023-01-07T08:08:43.926Z,0.00
2023-01-07T08:13:46.831Z,1.00
2023-01-07T08:18:49.619Z,14.00
2023-01-07T08:23:53.743Z,18.00
2023-01-07T08:28:56.532Z,8.00
2023-01-07T08:33:59.317Z,8.00
2023-01-07T08:39:03.430Z,6.60
2023-01-07T08:44:06.542Z,3.00
2023-01-07T08:49:10.436Z,4.20
2023-01-07T08:54:14.870Z,3.00
2023-01-07T08:59:17.586Z,3.80
2023-01-07T09:04:20.324Z,2.00
2023-01-07T09:09:24.475Z,2.00
2023-01-07T09:14:27.336Z,1.20
2023-01-07T09:19:30.103Z,2.80
2023-01-07T09:24:34.292Z,2.00
2023-01-07T09:29:37.090Z,1.00
2023-01-07T09:34:39.829Z,2.00
2023-01-07T09:39:44.140Z,2.00
2023-01-07T09:44:54.817Z,2.00
2023-01-07T09:49:59.791Z,2.00
2023-01-07T09:55:09.169Z,1.00
2023-01-07T10:00:16.299Z,1.00
2023-01-07T10:05:28.847Z,1.00
2023-01-07T10:10:38.699Z,1.00
2023-01-07T10:15:46.214Z,1.00
2023-01-07T10:20:51.818Z,0.80
2023-01-07T10:25:57.109Z,1.00
2023-01-07T10:30:59.939Z,1.00
2023-01-07T10:36:07.429Z,1.00
2023-01-07T10:41:14.961Z,1.00
2023-01-07T10:46:23.613Z,0.00
2023-01-07T10:51:38.985Z,0.80
2023-01-07T10:56:44.349Z,1.00
2023-01-07T11:01:49.681Z,1.00
2023-01-07T11:06:54.784Z,1.00
2023-01-07T11:11:59.494Z,1.00
2023-01-07T11:17:08.749Z,1.00
2023-01-07T11:22:29.096Z,1.00
2023-01-07T11:27:34.336Z,1.00
2023-01-07T11:32:38.665Z,3.60
2023-01-07T11:37:42.041Z,1.00
2023-01-07T11:42:49.838Z,2.00
2023-01-07T11:47:59.198Z,1.00
2023-01-07T11:53:03.496Z,1.00
2023-01-07T11:58:28.650Z,2.00
2023-01-07T12:03:33.070Z,2.00
2023-01-07T12:08:35.864Z,3.00
2023-01-07T12:13:41.473Z,2.00
2023-01-07T12:18:54.449Z,2.00
2023-01-07T12:24:04.917Z,3.00
2023-01-07T12:29:14.758Z,5.00
2023-01-07T12:34:23.623Z,5.40
2023-01-07T12:39:29.674Z,3.80
2023-01-07T12:44:33.802Z,5.00
2023-01-07T12:49:37.973Z,3.40
2023-01-07T12:54:45.636Z,2.80
2023-01-07T12:59:51.248Z,3.40
2023-01-07T13:04:59.541Z,3.00
2023-01-07T13:10:03.804Z,5.00
2023-01-07T13:15:12.502Z,4.60
2023-01-07T13:20:15.665Z,3.00
2023-01-07T13:25:32.872Z,3.40
2023-01-07T13:30:39.687Z,2.00
2023-01-07T13:35:51.253Z,2.80
2023-01-07T13:41:20.152Z,3.40
2023-01-07T13:46:26.254Z,2.60
2023-01-07T13:51:30.047Z,4.00
2023-01-07T13:56:35.539Z,2.40
2023-01-07T14:02:11.184Z,2.00
2023-01-07T14:07:14.076Z,1.00
2023-01-07T14:12:46.733Z,2.00
2023-01-07T14:18:01.490Z,2.80
2023-01-07T14:23:07.911Z,3.00
2023-01-07T14:28:23.308Z,5.00
2023-01-07T14:33:28.247Z,2.00
2023-01-07T14:39:07.888Z,2.80
2023-01-07T14:44:27.001Z,2.00
2023-01-07T14:49:45.701Z,2.80
2023-01-07T14:55:03.430Z,2.40
2023-01-07T15:00:37.747Z,2.00
2023-01-07T15:06:23.423Z,2.00
2023-01-07T15:11:44.144Z,2.00
2023-01-07T15:16:48.738Z,2.60
2023-01-07T15:22:00.108Z,3.00
2023-01-07T15:27:04.412Z,3.00
2023-01-07T15:32:12.930Z,3.00
2023-01-07T15:37:17.094Z,2.00
2023-01-07T15:42:21.894Z,2.80
2023-01-07T15:47:33.746Z,3.00
2023-01-07T15:52:38.351Z,2.80
2023-01-07T15:57:41.143Z,3.00
2023-01-07T16:02:43.964Z,2.80
2023-01-07T16:07:52.196Z,2.00
2023-01-07T16:12:55.872Z,2.00
2023-01-07T16:17:59.387Z,3.00
2023-01-07T16:23:15.806Z,2.00
2023-01-07T16:28:19.673Z,2.00
2023-01-07T16:33:23.994Z,2.00
2023-01-07T16:38:28.179Z,3.60
2023-01-07T16:43:44.853Z,1.80
2023-01-07T16:48:48.084Z,1.60
2023-01-07T16:53:52.249Z,3.40
2023-01-07T16:58:55.495Z,2.20
2023-01-07T17:03:59.264Z,2.40
2023-01-07T17:09:03.635Z,2.00
2023-01-07T17:14:13.496Z,2.20
2023-01-07T17:19:26.219Z,2.80
2023-01-07T17:24:48.583Z,1.40
2023-01-07T17:29:51.300Z,3.20
2023-01-07T17:34:54.125Z,3.00
2023-01-07T17:39:58.501Z,1.60
2023-01-07T17:45:01.643Z,1.80
2023-01-07T17:50:04.916Z,2.00
2023-01-07T17:55:13.474Z,2.00
2023-01-07T18:00:17.886Z,1.60
2023-01-07T18:05:22.081Z,1.80
2023-01-07T18:10:28.926Z,1.00
2023-01-07T18:15:31.778Z,2.00
2023-01-07T18:20:34.611Z,2.00
2023-01-07T18:25:38.747Z,1.20
2023-01-07T18:30:41.497Z,2.00
2023-01-07T18:35:44.348Z,1.20
2023-01-07T18:40:48.861Z,1.00
2023-01-07T18:45:51.701Z,2.00
2023-01-07T18:50:54.606Z,3.00
2023-01-07T18:56:02.482Z,2.00
2023-01-07T19:01:05.648Z,2.00
2023-01-07T19:06:09.255Z,2.00
2023-01-07T19:11:14.203Z,2.20
2023-01-07T19:16:17.163Z,2.00
2023-01-07T19:21:21.453Z,2.80
2023-01-07T19:26:26.691Z,4.00
2023-01-07T19:31:29.524Z,3.00
2023-01-07T19:36:32.528Z,2.00
2023-01-07T19:41:36.639Z,3.20
2023-01-07T19:46:39.396Z,3.20
2023-01-07T19:51:42.918Z,3.00
2023-01-07T19:56:47.343Z,3.00
2023-01-07T20:01:50.625Z,3.20
2023-01-07T20:06:53.487Z,3.80
2023-01-07T20:11:57.739Z,2.80
2023-01-07T20:17:00.739Z,2.20
2023-01-07T20:22:03.744Z,3.40
2023-01-07T20:27:07.992Z,2.60
2023-01-07T20:32:11.003Z,3.00
2023-01-07T20:37:13.979Z,7.00
2023-01-07T20:42:18.351Z,2.40
2023-01-07T20:47:21.146Z,3.20
2023-01-07T20:52:24.176Z,3.80
2023-01-07T20:57:28.641Z,3.00
2023-01-07T21:02:32.198Z,3.00
2023-01-07T21:07:35.404Z,3.00
2023-01-07T21:12:39.530Z,3.00
2023-01-07T21:17:42.485Z,3.20
2023-01-07T21:22:47.549Z,2.40
2023-01-07T21:27:52.136Z,3.00
2023-01-07T21:32:55.398Z,3.20
2023-01-07T21:37:58.411Z,3.00
2023-01-07T21:43:02.734Z,2.40
2023-01-07T21:48:06.015Z,3.00
2023-01-07T21:53:08.764Z,3.80
2023-01-07T21:58:12.925Z,2.80
2023-01-07T22:03:15.714Z,3.00
2023-01-07T22:08:18.561Z,4.00
2023-01-07T22:13:22.977Z,2.00
2023-01-07T22:18:25.789Z,2.60
2023-01-07T22:23:28.618Z,2.80
2023-01-07T22:28:33.299Z,2.00
2023-01-07T22:33:36.302Z,3.00
2023-01-07T22:38:39.404Z,3.40
2023-01-07T22:43:43.680Z,2.00
2023-01-07T22:48:46.462Z,2.00
2023-01-07T22:53:50.177Z,3.00
2023-01-07T22:58:54.263Z,3.00
2023-01-07T23:03:56.991Z,3.00
2023-01-07T23:08:59.800Z,3.00
2023-01-07T23:14:03.935Z,3.80
2023-01-07T23:19:06.751Z,2.00
2023-01-07T23:24:09.645Z,2.40
2023-01-07T23:29:13.776Z,2.00
2023-01-07T23:34:16.848Z,2.20
2023-01-07T23:39:19.821Z,2.00
2023-01-07T23:44:24.189Z,2.40
2023-01-07T23:49:27.000Z,3.00
2023-01-07T23:54:30.010Z,2.60
2023-01-07T23:59:34.190Z,1.20
